AirNav   Air Wisconsin Up To $57,000 Bonus
 
 1150 users online  

VG57 Maples Field Airport
Catlett, Virginia, USA

GOING TO CATLETT?


FAA INFORMATION EFFECTIVE 14 JULY 2022

Location

FAA Identifier: VG57
Lat/Long: 38-36-20.4350N 077-35-04.9580W
38-36.340583N 077-35.082633W
38.6056764,-77.5847106
(estimated)
Elevation: 225 ft. / 69 m (estimated)
Variation: 09W (1985)
From city: 4 miles SE of CATLETT, VA
Time zone: UTC -4 (UTC -5 during Standard Time)
Zip code: 20119

Airport Operations

Airport use: Private use. Permission required prior to landing
Activation date: 12/1985
Control tower: no
ARTCC: WASHINGTON CENTER
FSS: LEESBURG FLIGHT SERVICE STATION
Attendance: UNATTENDED
UNATTENDED
Wind indicator: lighted
Segmented circle: no

Airport Communications

WX AWOS-3 at HWY (6 nm W): 120.350 (540-788-4078)
WX AWOS-3PT at HEF (8 nm NE): PHONE 703-361-6160
WX AWOS-3 at CJR (14 nm W): 119.325 (540-727-0523)
WX AWOS-3 at RMN (14 nm SE): 126.325 (540-657-8283)

Nearby radio navigation aids

VOR radial/distance  VOR name  Freq  Var
CSNr105/13.3CASANOVA VORTAC116.3006W
BRVr335/19.5BROOKE VORTAC114.5009W
AMLr204/20.5ARMEL VOR/DME113.5008W
DCAr248/29.8WASHINGTON VOR/DME111.0009W
LDNr123/32.7LINDEN VORTAC114.3006W
ADWr260/35.7ANDREWS VORTAC113.1010W
OTTr271/39.8NOTTINGHAM VORTAC113.7010W

 
NDB name  Hdg/Dist  Freq  Var  ID
NAILR069/17.635110WMSQ -- ... --.-
SHANNON353/21.323710WEZF . --.. ..-.
DAVEE270/22.522309WDAA -.. .- .-
OXONN261/27.833211WDCA -.. -.-. .-
GEORGETOWN237/29.032309WGTN --. - -.

Airport Services

Parking: tiedowns

Runway Information

Runway 4/22

Dimensions: 2450 x 45 ft. / 747 x 14 m
Surface: turf, in fair condition
RUNWAY 4  RUNWAY 22
Traffic pattern: leftleft
Obstructions: 15 ft. road, 140 ft. from runway, 9:1 slope to clear35 ft. tree, 569 ft. from runway, 40 ft. right of centerline, 16:1 slope to clear

Airport Ownership and Management from official FAA records

Ownership: Privately-owned
Owner: CHARLES MAPLES
3818 DANIELS RUN COURT
FAIRFAX, VA 22030
Phone 703-218-9801
Manager: CHARLES MAPLES
3818 DANIELS RUN COURT
FAIRFAX, VA 22030
Phone 703-218-9801

Airport Operational Statistics

Aircraft based on the field: 1
Single engine airplanes: 1
  • ULTRALIGHT ACTIVITY ON & INVOF ARPT.
    
Aircraft operations: 110/year *
91% local general aviation
9% transient general aviation
* for 12-month period ending 07 March 1997

Additional Remarks

RY 22 4 FT WOOD FENCE 120 FT FM END OF RY.
R/C MODEL ACFT INVOF ARPT.
FOR CD CTC POTOMAC APCH AT 866-709-4993.

Instrument Procedures

There are no published instrument procedures at VG57.

Some nearby airports with instrument procedures:

KHWY - Warrenton/Fauquier Airport (6 nm W)
KHEF - Manassas Regional Airport/Harry P. Davis Field (8 nm NE)
KCJR - Culpeper Regional Airport (14 nm W)
KRMN - Stafford Regional Airport (14 nm SE)
KNYG - Quantico Marine Corps Air Facility (Turner Field) (14 nm SE)
 
Loc | Ops | Rwys | IFR | FBO | Links
Com | Nav | Svcs | Stats | Notes
Area around VG57 (Maples Field Airport)
 
Road maps at: MapQuest Bing Google
 
Aerial photo
WARNING: Photo may not be current or correct
Aerial photo of VG57 (Maples Field Airport)
Do you have a better or more recent aerial photo of Maples Field Airport that you would like to share? If so, please send us your photo.

 
Sectional chart

 
Airport distance calculator
Flying to Maples Field Airport? Find the distance to fly.

From to VG57

Sunrise and sunset
Times for 07-Aug-2022
 Local
(UTC-4)
 Zulu
(UTC)
Morning civil twilight05:4909:49
Sunrise06:1810:18
Sunset20:1400:14
Evening civil twilight20:4300:43

Current date and time
Zulu (UTC)  07-Aug-2022 16:32:05
Local (UTC-4)  07-Aug-2022 12:32:05
 
METAR
KHWY 
6nm W 
071615Z AUTO 20006KT 10SM SCT026 31/24 A3020 RMK AO2 T03090235
KHEF 
7nm NE 
071556Z 18011G14KT 10SM CLR 31/24 A3020 RMK AO2 SLP231 T03110244 PNO $
KRMN 
14nm SE 
071615Z AUTO 22006KT 10SM BKN027 30/22 A3025 RMK AO2 T03030216
KNYG 
15nm SE 
071556Z 17012KT 10SM CLR 29/23 A3021 RMK AO2 SLP230 T02940233
TAF
KNYG 
15nm SE 
0715/0815 17009KT 9999 FEW150 QNH3015INS TEMPO 0717/0723 19010G18KT BECMG 0808/0810 VRB06KT 9999 BKN020 QNH3018INS TEMPO 0809/0815 3200 BR T31/0719Z T24/0810Z LAST NO AMENDS UNTIL 0909
NOTAMs
Click for the latest NOTAMs
NOTAMs are issued by the DoD/FAA and will open in a separate window not controlled by AirNav.

 

 
 

Would you like to see your business listed on this page?

 If your business provides an interesting product or service to pilots, flight crews, aircraft, or users of the Maples Field Airport, you should consider listing it here.  To start the listing process, click on the button below
 
Add a business
 

Other Pages about Maples Field Airport

www.flyvirginia.com/...
members.aol.com/...
members.aol.com/...
members.aol.com/...
 
Update a link
 
Copyright © AirNav, LLC. All rights reserved. Privacy Policy  Contact